Time,TemperatureF,DewpointF,PressureIn,WindDirection,WindDirectionDegrees,WindSpeedMPH,WindSpeedGustMPH,Humidity,HourlyPrecipIn,Conditions,Clouds,dailyrainin,SoftwareType,DateUTC
2013-01-24 00:10:00,37.7,38.0,30.09,West,263,0.0,0.0,99,0.01,,,0.00,weatherlink.com 1.10,2013-01-24 08:10:00,
2013-01-24 00:25:00,37.7,38.0,30.10,West,263,0.0,1.0,99,0.01,,,0.00,weatherlink.com 1.10,2013-01-24 08:25:00,
2013-01-24 00:40:00,37.7,38.0,30.11,West,263,0.0,0.0,99,0.00,,,0.00,weatherlink.com 1.10,2013-01-24 08:40:00,
2013-01-24 00:55:00,37.9,38.0,30.12,West,263,0.0,1.0,99,0.00,,,0.00,weatherlink.com 1.10,2013-01-24 08:55:00,
2013-01-24 01:10:00,37.9,38.0,30.12,West,263,0.0,0.0,99,0.00,,,0.00,weatherlink.com 1.10,2013-01-24 09:10:00,
2013-01-24 01:25:00,37.8,38.0,30.13,West,263,0.0,1.0,99,0.00,,,0.00,weatherlink.com 1.10,2013-01-24 09:25:00,
2013-01-24 01:40:00,37.8,38.0,30.13,West,263,0.0,0.0,99,0.00,,,0.00,weatherlink.com 1.10,2013-01-24 09:40:00,
2013-01-24 01:55:00,37.8,38.0,30.14,West,263,0.0,2.0,99,0.00,,,0.00,weatherlink.com 1.10,2013-01-24 09:55:00,
2013-01-24 02:25:00,37.7,38.0,30.15,West,263,1.0,2.0,99,0.00,,,0.00,weatherlink.com 1.10,2013-01-24 10:25:00,
2013-01-24 02:40:00,37.8,38.0,30.15,West,263,0.0,1.0,99,0.00,,,0.00,weatherlink.com 1.10,2013-01-24 10:40:00,
2013-01-24 02:55:00,37.8,38.0,30.16,West,263,0.0,2.0,99,0.00,,,0.00,weatherlink.com 1.10,2013-01-24 10:55:00,
2013-01-24 03:10:00,37.9,38.0,30.16,West,263,0.0,0.0,99,0.00,,,0.00,weatherlink.com 1.10,2013-01-24 11:10:00,
2013-01-24 03:25:00,38.0,38.0,30.17,West,263,0.0,1.0,99,0.00,,,0.00,weatherlink.com 1.10,2013-01-24 11:25:00,
2013-01-24 03:40:00,38.0,38.0,30.16,West,263,0.0,0.0,99,0.00,,,0.00,weatherlink.com 1.10,2013-01-24 11:40:00,
2013-01-24 03:55:00,37.9,38.0,30.17,West,263,0.0,0.0,99,0.00,,,0.00,weatherlink.com 1.10,2013-01-24 11:55:00,
2013-01-24 04:10:00,37.9,38.0,30.17,West,263,0.0,0.0,100,0.00,,,0.00,weatherlink.com 1.10,2013-01-24 12:10:00,
2013-01-24 04:25:00,37.8,38.0,30.17,West,263,0.0,0.0,100,0.00,,,0.00,weatherlink.com 1.10,2013-01-24 12:25:00,
2013-01-24 04:40:00,37.8,38.0,30.17,West,263,0.0,1.0,100,0.00,,,0.00,weatherlink.com 1.10,2013-01-24 12:40:00,
2013-01-24 04:55:00,37.9,38.0,30.17,West,263,0.0,0.0,100,0.00,,,0.00,weatherlink.com 1.10,2013-01-24 12:55:00,
2013-01-24 05:10:00,37.7,38.0,30.17,West,263,0.0,2.0,100,0.00,,,0.00,weatherlink.com 1.10,2013-01-24 13:10:00,
2013-01-24 05:25:00,37.7,38.0,30.18,West,263,0.0,0.0,100,0.00,,,0.00,weatherlink.com 1.10,2013-01-24 13:25:00,
2013-01-24 05:40:00,37.7,38.0,30.19,West,263,0.0,2.0,99,0.00,,,0.00,weatherlink.com 1.10,2013-01-24 13:40:00,
2013-01-24 05:55:00,37.7,38.0,30.19,West,263,0.0,1.0,99,0.00,,,0.00,weatherlink.com 1.10,2013-01-24 13:55:00,
2013-01-24 06:10:00,37.8,38.0,30.19,West,263,0.0,0.0,100,0.00,,,0.00,weatherlink.com 1.10,2013-01-24 14:10:00,
2013-01-24 06:25:00,37.9,38.0,30.19,West,263,0.0,2.0,100,0.00,,,0.00,weatherlink.com 1.10,2013-01-24 14:25:00,
2013-01-24 06:40:00,37.8,38.0,30.18,WNW,288,0.0,0.0,100,0.00,,,0.00,weatherlink.com 1.10,2013-01-24 14:40:00,
2013-01-24 06:55:00,38.0,38.0,30.18,East,96,6.0,6.0,100,0.00,,,0.00,weatherlink.com 1.10,2013-01-24 14:55:00,
2013-01-24 07:10:00,38.1,38.0,30.18,East,84,3.0,5.0,100,0.00,,,0.00,weatherlink.com 1.10,2013-01-24 15:10:00,
2013-01-24 07:25:00,38.0,38.0,30.18,North,355,1.0,6.0,99,0.01,,,0.01,weatherlink.com 1.10,2013-01-24 15:25:00,
2013-01-24 07:41:00,37.9,38.0,30.19,ESE,109,3.0,7.0,99,0.01,,,0.01,weatherlink.com 1.10,2013-01-24 15:41:00,
2013-01-24 07:56:00,38.0,38.0,30.19,ENE,57,0.0,5.0,99,0.01,,,0.01,weatherlink.com 1.10,2013-01-24 15:56:00,
2013-01-24 08:11:00,38.0,38.0,30.18,North,355,0.0,4.0,99,0.01,,,0.01,weatherlink.com 1.10,2013-01-24 16:11:00,
2013-01-24 08:26:00,38.2,38.0,30.18,East,98,5.0,9.0,98,0.00,,,0.01,weatherlink.com 1.10,2013-01-24 16:26:00,
2013-01-24 08:41:00,38.3,38.0,30.18,NNE,23,1.0,5.0,98,0.00,,,0.01,weatherlink.com 1.10,2013-01-24 16:41:00,
2013-01-24 08:56:00,38.4,38.0,30.19,ENE,65,2.0,5.0,98,0.01,,,0.02,weatherlink.com 1.10,2013-01-24 16:56:00,
2013-01-24 09:11:00,38.5,38.0,30.19,ESE,103,1.0,7.0,98,0.01,,,0.02,weatherlink.com 1.10,2013-01-24 17:11:00,
2013-01-24 09:26:00,38.6,38.0,30.20,ENE,78,0.0,4.0,98,0.01,,,0.02,weatherlink.com 1.10,2013-01-24 17:26:00,
2013-01-24 09:41:00,38.8,38.0,30.19,NNE,24,3.0,5.0,98,0.01,,,0.02,weatherlink.com 1.10,2013-01-24 17:41:00,
2013-01-24 09:56:00,38.9,38.0,30.19,East,90,0.0,5.0,98,0.00,,,0.02,weatherlink.com 1.10,2013-01-24 17:56:00,
2013-01-24 10:11:00,39.0,38.0,30.19,NNE,18,2.0,5.0,97,0.00,,,0.02,weatherlink.com 1.10,2013-01-24 18:11:00,
2013-01-24 10:26:00,39.2,39.0,30.20,North,355,0.0,4.0,97,0.00,,,0.02,weatherlink.com 1.10,2013-01-24 18:26:00,
2013-01-24 10:41:00,39.4,39.0,30.19,East,84,2.0,5.0,97,0.00,,,0.02,weatherlink.com 1.10,2013-01-24 18:41:00,
2013-01-24 10:56:00,39.5,39.0,30.20,NNE,29,1.0,4.0,96,0.00,,,0.02,weatherlink.com 1.10,2013-01-24 18:56:00,
2013-01-24 11:11:00,39.7,38.0,30.19,NE,36,1.0,8.0,94,0.00,,,0.02,weatherlink.com 1.10,2013-01-24 19:11:00,
2013-01-24 11:26:00,39.7,38.0,30.19,NW,324,0.0,4.0,93,0.00,,,0.02,weatherlink.com 1.10,2013-01-24 19:26:00,
2013-01-24 11:41:00,39.9,38.0,30.18,ESE,121,0.0,5.0,93,0.00,,,0.02,weatherlink.com 1.10,2013-01-24 19:41:00,
2013-01-24 11:56:00,40.4,39.0,30.18,East,99,1.0,3.0,93,0.00,,,0.02,weatherlink.com 1.10,2013-01-24 19:56:00,
2013-01-24 12:11:00,40.9,38.0,30.16,NW,319,3.0,5.0,90,0.00,,,0.02,weatherlink.com 1.10,2013-01-24 20:11:00,
2013-01-24 12:26:00,41.1,38.0,30.14,ENE,61,1.0,8.0,87,0.00,,,0.02,weatherlink.com 1.10,2013-01-24 20:26:00,
2013-01-24 12:41:00,41.2,38.0,30.14,North,5,1.0,7.0,87,0.00,,,0.02,weatherlink.com 1.10,2013-01-24 20:41:00,
2013-01-24 12:57:00,41.2,37.0,30.13,NE,53,2.0,7.0,85,0.00,,,0.02,weatherlink.com 1.10,2013-01-24 20:57:00,
2013-01-24 13:11:00,41.2,37.0,30.13,ENE,77,1.0,3.0,86,0.00,,,0.02,weatherlink.com 1.10,2013-01-24 21:11:00,
2013-01-24 13:26:00,41.1,37.0,30.12,NE,55,3.0,3.0,85,0.00,,,0.02,weatherlink.com 1.10,2013-01-24 21:26:00,
2013-01-24 13:41:00,40.9,37.0,30.11,North,5,1.0,3.0,87,0.00,,,0.02,weatherlink.com 1.10,2013-01-24 21:41:00,
2013-01-24 13:57:00,40.7,37.0,30.11,North,5,2.0,4.0,87,0.00,,,0.02,weatherlink.com 1.10,2013-01-24 21:57:00,
2013-01-24 14:11:00,40.6,37.0,30.10,North,5,0.0,2.0,88,0.00,,,0.02,weatherlink.com 1.10,2013-01-24 22:11:00,
2013-01-24 14:26:00,40.3,37.0,30.08,NNE,32,0.0,4.0,88,0.00,,,0.02,weatherlink.com 1.10,2013-01-24 22:26:00,
2013-01-24 14:41:00,40.3,38.0,30.08,WNW,294,2.0,5.0,90,0.00,,,0.02,weatherlink.com 1.10,2013-01-24 22:41:00,
2013-01-24 14:56:00,40.1,36.0,30.09,West,269,1.0,6.0,86,0.00,,,0.02,weatherlink.com 1.10,2013-01-24 22:56:00,
2013-01-24 15:11:00,40.0,37.0,30.10,WSW,251,4.0,8.0,87,0.00,,,0.02,weatherlink.com 1.10,2013-01-24 23:11:00,
2013-01-24 15:26:00,39.8,37.0,30.10,West,277,5.0,9.0,89,0.00,,,0.02,weatherlink.com 1.10,2013-01-24 23:26:00,
2013-01-24 15:41:00,39.5,37.0,30.10,South,182,0.0,4.0,89,0.00,,,0.02,weatherlink.com 1.10,2013-01-24 23:41:00,
2013-01-24 15:56:00,39.3,37.0,30.11,West,278,0.0,3.0,92,0.00,,,0.02,weatherlink.com 1.10,2013-01-24 23:56:00,
2013-01-24 16:11:00,38.8,36.0,30.11,North,5,0.0,5.0,90,0.00,,,0.02,weatherlink.com 1.10,2013-01-25 00:11:00,
2013-01-24 16:26:00,38.3,37.0,30.10,NNE,20,0.0,1.0,93,0.01,,,0.03,weatherlink.com 1.10,2013-01-25 00:26:00,
2013-01-24 16:41:00,37.8,36.0,30.11,NNE,20,0.0,2.0,94,0.02,,,0.04,weatherlink.com 1.10,2013-01-25 00:41:00,
2013-01-24 16:56:00,37.5,36.0,30.11,NNE,20,0.0,2.0,95,0.03,,,0.05,weatherlink.com 1.10,2013-01-25 00:56:00,
2013-01-24 17:11:00,37.0,36.0,30.11,North,349,1.0,4.0,95,0.03,,,0.05,weatherlink.com 1.10,2013-01-25 01:11:00,
2013-01-24 17:26:00,36.5,35.0,30.11,NNW,344,0.0,7.0,95,0.03,,,0.06,weatherlink.com 1.10,2013-01-25 01:26:00,
2013-01-24 17:41:00,36.3,35.0,30.10,NW,316,0.0,2.0,96,0.03,,,0.07,weatherlink.com 1.10,2013-01-25 01:41:00,
2013-01-24 17:56:00,36.2,36.0,30.09,North,5,0.0,3.0,97,0.03,,,0.08,weatherlink.com 1.10,2013-01-25 01:56:00,
2013-01-24 18:11:00,36.1,35.0,30.09,WNW,294,0.0,2.0,97,0.03,,,0.08,weatherlink.com 1.10,2013-01-25 02:11:00,
2013-01-24 18:26:00,35.9,35.0,30.09,WNW,303,1.0,4.0,97,0.03,,,0.09,weatherlink.com 1.10,2013-01-25 02:26:00,
2013-01-24 18:42:00,36.1,36.0,30.08,NNW,335,1.0,3.0,98,0.03,,,0.10,weatherlink.com 1.10,2013-01-25 02:42:00,
2013-01-24 18:57:00,36.7,36.0,30.07,WNW,286,1.0,4.0,98,0.03,,,0.11,weatherlink.com 1.10,2013-01-25 02:57:00,
2013-01-24 19:12:00,36.9,36.0,30.07,NW,324,0.0,4.0,97,0.03,,,0.11,weatherlink.com 1.10,2013-01-25 03:12:00,
2013-01-24 19:27:00,36.8,36.0,30.07,SSW,192,1.0,5.0,97,0.03,,,0.12,weatherlink.com 1.10,2013-01-25 03:27:00,
2013-01-24 19:42:00,36.5,36.0,30.06,West,275,1.0,2.0,97,0.03,,,0.13,weatherlink.com 1.10,2013-01-25 03:42:00,
2013-01-24 19:57:00,36.4,36.0,30.07,WNW,287,0.0,3.0,97,0.02,,,0.13,weatherlink.com 1.10,2013-01-25 03:57:00,
2013-01-24 20:12:00,36.5,36.0,30.06,WSW,246,0.0,4.0,98,0.03,,,0.14,weatherlink.com 1.10,2013-01-25 04:12:00,
2013-01-24 20:27:00,36.8,36.0,30.05,ENE,63,0.0,4.0,98,0.02,,,0.14,weatherlink.com 1.10,2013-01-25 04:27:00,
2013-01-24 20:42:00,37.5,37.0,30.05,ENE,67,1.0,6.0,98,0.02,,,0.15,weatherlink.com 1.10,2013-01-25 04:42:00,
2013-01-24 20:57:00,38.3,37.0,30.05,East,101,1.0,12.0,96,0.02,,,0.16,weatherlink.com 1.10,2013-01-25 04:57:00,
2013-01-24 21:12:00,38.4,37.0,30.05,North,355,1.0,11.0,96,0.02,,,0.16,weatherlink.com 1.10,2013-01-25 05:12:00,
2013-01-24 21:27:00,38.5,38.0,30.05,East,96,0.0,8.0,96,0.02,,,0.16,weatherlink.com 1.10,2013-01-25 05:27:00,
2013-01-24 21:42:00,38.5,38.0,30.05,ENE,63,3.0,6.0,96,0.02,,,0.17,weatherlink.com 1.10,2013-01-25 05:42:00,
2013-01-24 21:57:00,38.6,37.0,30.04,NNW,344,2.0,12.0,95,0.01,,,0.17,weatherlink.com 1.10,2013-01-25 05:57:00,
2013-01-24 22:12:00,38.6,37.0,30.04,East,89,1.0,8.0,95,0.02,,,0.18,weatherlink.com 1.10,2013-01-25 06:12:00,
2013-01-24 22:27:00,38.5,37.0,30.05,NNE,20,6.0,10.0,95,0.02,,,0.18,weatherlink.com 1.10,2013-01-25 06:27:00,
2013-01-24 22:57:00,38.9,38.0,30.04,NE,40,1.0,9.0,96,0.03,,,0.20,weatherlink.com 1.10,2013-01-25 06:57:00,
2013-01-24 23:12:00,39.0,38.0,30.04,SE,138,1.0,11.0,96,0.02,,,0.20,weatherlink.com 1.10,2013-01-25 07:12:00,
2013-01-24 23:27:00,39.1,38.0,30.04,NE,56,3.0,8.0,96,0.03,,,0.21,weatherlink.com 1.10,2013-01-25 07:27:00,
2013-01-24 23:42:00,39.3,38.0,30.04,ENE,58,2.0,10.0,96,0.03,,,0.22,weatherlink.com 1.10,2013-01-25 07:42:00,
2013-01-24 23:57:00,39.3,39.0,30.04,East,96,0.0,5.0,97,0.03,,,0.23,weatherlink.com 1.10,2013-01-25 07:57:00,